Time;durP1;ratioP1;P1;durP2;ratioP2;P2;SDS_P1;SDS_P2;PMS_P1;PMS_P2;Temp;Humidity;BMP_temperature;BMP_pressure;BME280_temperature;BME280_humidity;BME280_pressure;Samples;Min_cycle;Max_cycle;Signal;HPM_P1;HPM_P2
2022/12/21 00:01:56;;;;;;;6.13;5.23;;;8.60;99.90;;;;;;5094600;28;20474;-59
2022/12/21 00:04:26;;;;;;;5.30;4.80;;;8.50;99.90;;;;;;5094441;28;20447;-59
2022/12/21 00:06:53;;;;;;;6.20;5.43;;;8.60;99.90;;;;;;5094689;28;20479;-59
2022/12/21 00:09:22;;;;;;;6.50;5.60;;;8.50;99.90;;;;;;5094597;28;20492;-59
2022/12/21 00:11:49;;;;;;;6.60;5.90;;;8.50;99.90;;;;;;5094357;28;20478;-60
2022/12/21 00:14:17;;;;;;;5.93;5.37;;;8.50;99.90;;;;;;5094525;28;20442;-59
2022/12/21 00:16:46;;;;;;;6.57;5.57;;;8.50;99.90;;;;;;5094648;28;20550;-59
2022/12/21 00:19:14;;;;;;;6.83;5.47;;;8.50;99.90;;;;;;5094278;28;20821;-59
2022/12/21 00:21:41;;;;;;;4.93;4.53;;;8.40;99.90;;;;;;5094383;28;20447;-59
2022/12/21 00:24:09;;;;;;;4.70;4.30;;;8.50;99.90;;;;;;5094021;28;20483;-59
2022/12/21 00:26:37;;;;;;;6.53;5.87;;;8.60;99.90;;;;;;5093984;28;20483;-60
2022/12/21 00:29:05;;;;;;;9.47;5.10;;;8.70;99.90;;;;;;5094191;28;20471;-59
2022/12/21 00:31:34;;;;;;;5.07;4.67;;;8.80;99.90;;;;;;5093933;28;20448;-59
2022/12/21 00:34:03;;;;;;;4.00;3.60;;;9.20;99.90;;;;;;5093953;28;20432;-60
2022/12/21 00:36:31;;;;;;;4.30;3.90;;;9.60;99.90;;;;;;5094030;28;20941;-59
2022/12/21 00:38:59;;;;;;;4.17;3.77;;;9.90;99.90;;;;;;5093439;28;20880;-59
2022/12/21 00:41:28;;;;;;;6.30;4.13;;;10.00;99.90;;;;;;5093600;28;20984;-59
2022/12/21 00:43:56;;;;;;;3.97;3.40;;;10.20;99.90;;;;;;5093695;28;20453;-59
2022/12/21 00:46:26;;;;;;;4.60;3.80;;;10.30;99.90;;;;;;5093864;28;20443;-60
2022/12/21 00:48:55;;;;;;;4.47;3.83;;;10.30;99.90;;;;;;5093981;28;20447;-60
2022/12/21 00:51:25;;;;;;;3.80;3.43;;;10.30;99.90;;;;;;5094013;28;20848;-60
2022/12/21 00:53:53;;;;;;;3.80;3.17;;;10.40;99.90;;;;;;5093959;28;20475;-59
2022/12/21 00:56:21;;;;;;;7.30;3.90;;;10.40;99.90;;;;;;5093669;28;20447;-59
2022/12/21 00:58:48;;;;;;;3.83;3.47;;;10.40;99.90;;;;;;5093490;28;20543;-59
2022/12/21 01:01:17;;;;;;;3.90;3.50;;;10.40;99.90;;;;;;5093521;28;20989;-59
2022/12/21 01:03:45;;;;;;;4.93;4.30;;;10.40;99.90;;;;;;5093962;28;20466;-59
2022/12/21 01:06:14;;;;;;;4.67;4.00;;;10.40;99.90;;;;;;5093345;28;20448;-59
2022/12/21 01:08:43;;;;;;;5.33;4.73;;;10.40;99.90;;;;;;5093056;28;20477;-60
2022/12/21 01:11:13;;;;;;;5.40;3.60;;;10.40;99.90;;;;;;5093421;28;20468;-60
2022/12/21 01:13:41;;;;;;;4.30;3.70;;;10.40;99.90;;;;;;5093686;28;20447;-60
2022/12/21 01:16:13;;;;;;;4.00;3.60;;;10.40;99.90;;;;;;5093455;28;20483;-59
2022/12/21 01:18:40;;;;;;;3.83;3.53;;;10.40;99.90;;;;;;5093282;28;20467;-59
2022/12/21 01:21:07;;;;;;;3.47;3.17;;;10.30;99.90;;;;;;5093204;28;20499;-59
2022/12/21 01:23:35;;;;;;;4.47;4.07;;;10.30;99.90;;;;;;5093290;28;20448;-59
2022/12/21 01:26:03;;;;;;;9.50;3.60;;;10.30;99.90;;;;;;5093582;28;20539;-59
2022/12/21 01:28:31;;;;;;;3.97;3.07;;;10.30;99.90;;;;;;5093540;28;20447;-59
2022/12/21 01:31:02;;;;;;;4.10;3.70;;;10.20;99.90;;;;;;5093643;28;20467;-59
2022/12/21 01:33:29;;;;;;;3.70;3.30;;;10.20;99.90;;;;;;5093482;28;20474;-60
2022/12/21 01:35:57;;;;;;;4.77;4.30;;;10.20;99.90;;;;;;5093508;28;20448;-59
2022/12/21 01:38:24;;;;;;;7.00;3.63;;;10.20;99.90;;;;;;5093011;28;20508;-59
2022/12/21 01:40:51;;;;;;;5.77;4.07;;;10.10;99.90;;;;;;5093202;28;20536;-59
2022/12/21 01:43:42;;;;;;;4.83;3.77;;;10.10;99.90;;;;;;5093203;28;20475;-59
2022/12/21 01:46:13;;;;;;;3.50;3.20;;;10.20;99.90;;;;;;5093418;28;20906;-59
2022/12/21 01:48:44;;;;;;;3.97;3.67;;;10.20;99.90;;;;;;5093050;28;20444;-59
2022/12/21 01:51:13;;;;;;;3.80;3.37;;;10.20;99.90;;;;;;5093361;28;20486;-59
2022/12/21 01:53:43;;;;;;;4.33;3.30;;;10.20;99.90;;;;;;5093687;28;20478;-59
2022/12/21 01:56:14;;;;;;;5.50;3.60;;;10.20;99.90;;;;;;5093091;28;20522;-59
2022/12/21 01:58:43;;;;;;;4.30;3.83;;;10.20;99.90;;;;;;5093038;28;21074;-59
2022/12/21 02:01:10;;;;;;;4.90;3.80;;;10.20;99.90;;;;;;5092875;28;20554;-59
2022/12/21 02:03:41;;;;;;;3.80;3.40;;;10.10;99.90;;;;;;5093314;28;20471;-59
2022/12/21 02:06:10;;;;;;;4.13;3.73;;;10.10;99.90;;;;;;5092924;28;20446;-59
2022/12/21 02:08:38;;;;;;;3.80;3.23;;;10.00;99.90;;;;;;5092936;28;20479;-59
2022/12/21 02:11:07;;;;;;;3.87;3.47;;;10.00;99.90;;;;;;5093075;28;20475;-60
2022/12/21 02:13:35;;;;;;;4.43;4.00;;;10.00;99.90;;;;;;5093198;28;20535;-60
2022/12/21 02:16:19;;;;;;;3.60;3.23;;;10.00;99.90;;;;;;5092824;28;20450;-60
2022/12/21 02:19:02;;;;;;;4.50;3.97;;;9.90;99.90;;;;;;5095001;28;20512;-59
2022/12/21 02:21:30;;;;;;;4.00;3.60;;;9.90;99.90;;;;;;5096755;28;20475;-59
2022/12/21 02:24:42;;;;;;;3.87;3.47;;;9.90;99.90;;;;;;5096429;28;20949;-60
2022/12/21 02:27:41;;;;;;;4.50;4.00;;;9.90;99.90;;;;;;5096341;28;20486;-60
2022/12/21 02:30:13;;;;;;;5.17;3.97;;;9.90;99.90;;;;;;5096169;28;20506;-60
2022/12/21 02:33:17;;;;;;;8.10;5.03;;;9.90;99.90;;;;;;5096378;28;20431;-59
2022/12/21 02:36:00;;;;;;;5.47;4.13;;;9.90;99.90;;;;;;5094446;28;20451;-59
2022/12/21 02:38:38;;;;;;;3.17;2.97;;;9.90;99.90;;;;;;5096744;28;20482;-59
2022/12/21 02:41:14;;;;;;;3.40;3.10;;;9.90;99.90;;;;;;5095915;28;20883;-59
2022/12/21 02:46:38;;;;;;;5.40;3.90;;;10.10;99.90;;;;;;5096225;28;20411;-59
2022/12/21 02:49:11;;;;;;;3.80;3.40;;;10.10;99.90;;;;;;5095940;28;20424;-59
2022/12/21 02:51:43;;;;;;;5.70;3.60;;;10.10;99.90;;;;;;5095921;28;20977;-59
2022/12/21 02:54:11;;;;;;;3.57;3.20;;;10.10;99.90;;;;;;5096274;28;20898;-60
2022/12/21 02:56:38;;;;;;;3.33;2.93;;;10.10;99.90;;;;;;5096215;28;20772;-59
2022/12/21 02:59:08;;;;;;;3.73;3.43;;;10.10;99.90;;;;;;5095816;28;20520;-60
2022/12/21 03:01:55;;;;;;;6.13;3.87;;;10.10;99.90;;;;;;5096109;28;20465;-59
2022/12/21 03:04:53;;;;;;;4.80;3.00;;;10.10;99.90;;;;;;5096144;28;20458;-59
2022/12/21 03:07:39;;;;;;;4.27;3.03;;;10.00;99.90;;;;;;5091198;28;20489;-60
2022/12/21 03:10:15;;;;;;;3.83;3.13;;;10.10;99.90;;;;;;5095638;28;20509;-60
2022/12/21 03:12:54;;;;;;;5.27;3.43;;;10.00;99.90;;;;;;5095895;28;20500;-60
2022/12/21 03:15:28;;;;;;;4.13;3.43;;;10.00;99.90;;;;;;5095607;28;20952;-59
2022/12/21 03:18:01;;;;;;;3.70;3.30;;;10.00;99.90;;;;;;5095521;28;20498;-59
2022/12/21 03:20:36;;;;;;;4.83;3.87;;;10.00;99.90;;;;;;5095529;28;20487;-59
2022/12/21 03:23:11;;;;;;;5.60;4.10;;;10.00;99.90;;;;;;5095710;28;20423;-59
2022/12/21 03:25:43;;;;;;;3.47;3.17;;;10.00;99.90;;;;;;5095279;28;20431;-60
2022/12/21 03:28:14;;;;;;;3.93;3.53;;;10.00;99.90;;;;;;5095628;28;20436;-59
2022/12/21 03:30:44;;;;;;;3.67;3.27;;;9.90;99.90;;;;;;5094587;28;20468;-60
2022/12/21 03:33:15;;;;;;;5.13;4.37;;;9.90;99.90;;;;;;5095216;28;20551;-59
2022/12/21 03:35:47;;;;;;;3.90;3.47;;;10.00;99.90;;;;;;5095406;28;20428;-60
2022/12/21 03:38:18;;;;;;;4.90;3.47;;;10.00;99.90;;;;;;5095465;28;20512;-59
2022/12/21 03:40:49;;;;;;;6.30;3.50;;;9.90;99.90;;;;;;5094879;28;20483;-59
2022/12/21 03:43:23;;;;;;;4.10;3.80;;;9.90;99.90;;;;;;5094983;28;20435;-60
2022/12/21 03:45:55;;;;;;;3.80;3.43;;;9.90;99.90;;;;;;5095293;28;20430;-60
2022/12/21 03:48:25;;;;;;;4.47;4.00;;;9.90;99.90;;;;;;5095142;28;20432;-59
2022/12/21 03:51:00;;;;;;;5.83;3.70;;;9.90;99.90;;;;;;5095076;28;20927;-60
2022/12/21 03:53:34;;;;;;;4.53;3.60;;;9.90;99.90;;;;;;5094791;28;20442;-60
2022/12/21 03:56:07;;;;;;;6.10;3.90;;;9.90;99.90;;;;;;5094775;28;20808;-60
2022/12/21 03:58:35;;;;;;;3.93;3.63;;;9.80;99.90;;;;;;5095011;28;20428;-59
2022/12/21 04:01:15;;;;;;;4.50;3.50;;;9.80;99.90;;;;;;5094841;28;20487;-60
2022/12/21 04:03:47;;;;;;;4.60;4.10;;;9.80;99.90;;;;;;5094670;28;20435;-60
2022/12/21 04:06:20;;;;;;;4.53;3.93;;;9.80;99.90;;;;;;5094547;28;20557;-60
2022/12/21 04:08:48;;;;;;;3.60;3.30;;;9.80;99.90;;;;;;5094475;28;20452;-60
2022/12/21 04:12:36;;;;;;;4.53;3.60;;;9.80;99.90;;;;;;5094293;28;21011;-60
2022/12/21 04:14:02;;;;;;;7.53;3.70;;;9.80;99.90;;;;;;5094322;28;20426;-60
2022/12/21 04:16:29;;;;;;;3.70;3.37;;;9.70;99.90;;;;;;5094357;28;20448;-60
2022/12/21 04:21:42;;;;;;;4.30;3.90;;;9.80;99.90;;;;;;5094435;28;20403;-63
2022/12/21 04:29:39;;;;;;;3.53;3.23;;;9.80;99.90;;;;;;5094248;28;20513;-60
2022/12/21 04:32:06;;;;;;;3.60;3.30;;;9.80;99.90;;;;;;5094023;28;20789;-60
2022/12/21 04:34:33;;;;;;;4.83;4.10;;;9.80;99.90;;;;;;5094344;28;20496;-60
2022/12/21 04:39:45;;;;;;;4.67;3.47;;;9.80;99.90;;;;;;5093706;28;20479;-60
2022/12/21 04:42:12;;;;;;;3.83;3.50;;;9.80;99.90;;;;;;5094144;28;20485;-59
2022/12/21 04:44:39;;;;;;;3.37;3.07;;;9.80;99.90;;;;;;5093893;28;20852;-60
2022/12/21 04:47:06;;;;;;;4.57;3.50;;;9.90;99.90;;;;;;5094154;28;20517;-60
2022/12/21 04:49:33;;;;;;;5.83;4.10;;;9.90;99.90;;;;;;5093773;28;20460;-60
2022/12/21 04:52:01;;;;;;;3.70;3.40;;;9.80;99.90;;;;;;5093671;28;20447;-60
2022/12/21 04:54:28;;;;;;;4.00;2.97;;;9.90;99.90;;;;;;5094109;28;20465;-60
2022/12/21 04:56:55;;;;;;;3.50;3.20;;;9.80;99.90;;;;;;5093971;28;20455;-59
2022/12/21 04:59:22;;;;;;;3.93;3.57;;;9.90;99.90;;;;;;5093515;28;20981;-60
2022/12/21 05:01:50;;;;;;;4.00;3.00;;;10.00;99.90;;;;;;5093831;28;20439;-60
2022/12/21 05:04:16;;;;;;;4.60;3.47;;;10.00;99.90;;;;;;5093609;28;20451;-60
2022/12/21 05:06:43;;;;;;;3.33;2.93;;;10.00;99.90;;;;;;5093407;28;20497;-60
2022/12/21 05:09:13;;;;;;;8.67;3.20;;;10.00;99.90;;;;;;5093507;28;20918;-60
2022/12/21 05:11:40;;;;;;;3.30;3.00;;;10.10;99.90;;;;;;5093771;28;20447;-59
2022/12/21 05:14:07;;;;;;;5.60;3.10;;;10.10;99.90;;;;;;5093787;28;20497;-59
2022/12/21 05:16:34;;;;;;;2.83;2.63;;;10.10;99.90;;;;;;5093417;28;20985;-59
2022/12/21 05:19:01;;;;;;;2.90;2.60;;;10.10;99.90;;;;;;5093650;28;20525;-59
2022/12/21 05:21:28;;;;;;;2.63;2.43;;;10.20;99.90;;;;;;5093528;28;20487;-60
2022/12/21 05:23:55;;;;;;;3.60;3.13;;;10.20;99.90;;;;;;5093369;28;20447;-59
2022/12/21 05:26:24;;;;;;;4.23;3.60;;;10.30;99.90;;;;;;5093572;28;20452;-59
2022/12/21 05:28:51;;;;;;;3.07;2.87;;;10.20;99.90;;;;;;5093670;28;20478;-60
2022/12/21 05:31:19;;;;;;;3.23;2.70;;;10.30;99.90;;;;;;5093156;28;20965;-60
2022/12/21 05:33:46;;;;;;;7.60;2.80;;;10.20;99.90;;;;;;5093309;28;20454;-59
2022/12/21 05:36:15;;;;;;;3.57;3.23;;;10.20;99.90;;;;;;5093558;28;20500;-60
2022/12/21 05:38:42;;;;;;;5.30;3.10;;;10.20;99.90;;;;;;5093779;28;20447;-60
2022/12/21 05:41:11;;;;;;;4.00;3.20;;;10.20;99.90;;;;;;5093032;28;20491;-59
2022/12/21 05:43:39;;;;;;;4.00;3.70;;;10.20;99.90;;;;;;5093166;28;20450;-59
2022/12/21 05:46:09;;;;;;;3.73;3.33;;;10.20;99.90;;;;;;5093215;28;20447;-60
2022/12/21 05:48:36;;;;;;;3.60;3.30;;;10.20;99.90;;;;;;5093177;28;20443;-60
2022/12/21 05:51:07;;;;;;;4.83;3.13;;;10.20;99.90;;;;;;5093332;28;20459;-60
2022/12/21 05:53:34;;;;;;;4.97;3.00;;;10.20;99.90;;;;;;5095117;28;20443;-60
2022/12/21 05:56:01;;;;;;;4.07;3.00;;;10.20;99.90;;;;;;5097378;28;20443;-60
2022/12/21 05:58:28;;;;;;;3.10;2.80;;;10.20;99.90;;;;;;5097353;28;20444;-59
2022/12/21 06:01:00;;;;;;;4.63;3.57;;;10.20;99.90;;;;;;5097103;28;20486;-60
2022/12/21 06:03:27;;;;;;;5.80;3.40;;;10.20;99.90;;;;;;5097167;28;20436;-60
2022/12/21 06:05:54;;;;;;;4.40;3.43;;;10.20;99.90;;;;;;5097192;28;20501;-60
2022/12/21 06:08:21;;;;;;;3.60;3.30;;;10.20;99.90;;;;;;5097114;28;20517;-60
2022/12/21 06:10:48;;;;;;;5.83;3.07;;;10.20;99.90;;;;;;5096674;28;20471;-60
2022/12/21 06:13:14;;;;;;;3.70;3.37;;;10.20;99.90;;;;;;5096549;28;20473;-60
2022/12/21 06:15:41;;;;;;;5.97;4.17;;;10.10;99.90;;;;;;5096680;28;20570;-60
2022/12/21 06:18:10;;;;;;;5.90;3.00;;;10.20;99.90;;;;;;5096621;28;20451;-60
2022/12/21 06:20:37;;;;;;;3.73;3.30;;;10.10;99.90;;;;;;5096411;28;20520;-60
2022/12/21 06:23:04;;;;;;;3.10;2.90;;;10.10;99.90;;;;;;5096803;28;20492;-59
2022/12/21 06:25:31;;;;;;;5.60;3.90;;;10.10;99.90;;;;;;5096427;28;20479;-60
2022/12/21 06:27:58;;;;;;;2.93;2.73;;;10.10;99.90;;;;;;5096543;28;20455;-59
2022/12/21 06:30:26;;;;;;;5.23;3.33;;;10.10;99.90;;;;;;5096566;28;20554;-60
2022/12/21 06:32:53;;;;;;;3.33;3.07;;;10.10;99.90;;;;;;5096498;28;20443;-60
2022/12/21 06:35:21;;;;;;;4.23;2.67;;;10.20;99.90;;;;;;5096216;28;20450;-59
2022/12/21 06:37:49;;;;;;;3.00;2.70;;;10.20;99.90;;;;;;5096342;28;20490;-59
2022/12/21 06:40:16;;;;;;;3.63;2.60;;;10.10;99.90;;;;;;5095827;28;21015;-60
2022/12/21 06:42:43;;;;;;;4.60;3.53;;;10.20;99.90;;;;;;5096149;28;20440;-59
2022/12/21 06:45:11;;;;;;;3.87;3.47;;;10.20;99.90;;;;;;5096333;28;20504;-59
2022/12/21 06:47:38;;;;;;;8.43;3.80;;;10.20;99.90;;;;;;5096418;28;20443;-59
2022/12/21 06:50:06;;;;;;;6.63;6.00;;;10.20;99.90;;;;;;5096194;28;20467;-59
2022/12/21 06:52:35;;;;;;;16.97;11.40;;;10.20;99.90;;;;;;5095745;28;20501;-59
2022/12/21 06:55:02;;;;;;;22.70;13.07;;;10.20;99.90;;;;;;5095725;28;20443;-59
2022/12/21 06:57:32;;;;;;;14.40;10.70;;;10.20;99.90;;;;;;5096115;28;20444;-59
2022/12/21 06:59:59;;;;;;;18.93;15.73;;;10.20;99.90;;;;;;5095619;28;20981;-60
2022/12/21 07:02:27;;;;;;;18.17;16.00;;;10.20;99.90;;;;;;5095824;28;20447;-59
2022/12/21 07:04:54;;;;;;;12.83;9.93;;;10.20;99.90;;;;;;5094673;28;20447;-59
2022/12/21 07:07:21;;;;;;;7.93;5.43;;;10.20;99.90;;;;;;5095905;28;20459;-60
2022/12/21 07:09:50;;;;;;;5.00;4.50;;;10.20;99.90;;;;;;5095887;28;20467;-60
2022/12/21 07:12:17;;;;;;;7.17;3.93;;;10.20;99.90;;;;;;5095663;28;20439;-60
2022/12/21 07:14:44;;;;;;;3.70;3.40;;;10.20;99.90;;;;;;5095360;28;20453;-60
2022/12/21 07:17:11;;;;;;;4.43;3.40;;;10.20;99.90;;;;;;5095384;28;20448;-59
2022/12/21 07:19:38;;;;;;;4.93;3.20;;;10.20;99.90;;;;;;5095551;28;20520;-59
2022/12/21 07:22:06;;;;;;;5.77;3.63;;;10.20;99.90;;;;;;5095314;28;20486;-59
2022/12/21 07:24:33;;;;;;;6.93;4.40;;;10.20;99.90;;;;;;5095561;28;20548;-60
2022/12/21 07:27:01;;;;;;;4.10;3.70;;;10.20;99.90;;;;;;5095596;28;20450;-60
2022/12/21 07:29:28;;;;;;;3.87;3.57;;;10.20;99.90;;;;;;5095406;28;20503;-60
2022/12/21 07:31:55;;;;;;;4.73;3.40;;;10.20;99.90;;;;;;5095349;28;20443;-60
2022/12/21 07:34:22;;;;;;;3.67;3.37;;;10.20;99.90;;;;;;5094997;28;20444;-60
2022/12/21 07:36:49;;;;;;;3.60;2.87;;;10.20;99.90;;;;;;5095330;28;20448;-59
2022/12/21 07:39:16;;;;;;;3.97;3.37;;;10.20;99.90;;;;;;5095202;28;20488;-59
2022/12/21 07:41:43;;;;;;;5.80;3.43;;;10.20;99.90;;;;;;5094889;28;20830;-60
2022/12/21 07:44:11;;;;;;;3.90;3.13;;;10.20;99.90;;;;;;5095018;28;20517;-59
2022/12/21 07:46:38;;;;;;;4.83;3.47;;;10.20;99.90;;;;;;5094928;28;20516;-60
2022/12/21 07:49:06;;;;;;;3.80;3.50;;;10.20;99.90;;;;;;5094672;28;20447;-60
2022/12/21 07:51:33;;;;;;;3.93;3.20;;;10.20;99.90;;;;;;5094590;28;20471;-60
2022/12/21 07:54:00;;;;;;;4.00;3.60;;;10.20;99.90;;;;;;5094441;28;20447;-60
2022/12/21 07:56:27;;;;;;;3.87;3.33;;;10.30;99.90;;;;;;5094557;28;20447;-59
2022/12/21 07:58:54;;;;;;;4.50;3.30;;;10.30;99.90;;;;;;5094965;28;20439;-59
2022/12/21 08:01:25;;;;;;;3.80;3.40;;;10.30;99.90;;;;;;5094798;28;20569;-59
2022/12/21 08:03:52;;;;;;;3.30;2.93;;;10.30;99.90;;;;;;5094649;28;20855;-60
2022/12/21 08:06:19;;;;;;;4.43;3.40;;;10.30;99.90;;;;;;5094816;28;20447;-60
2022/12/21 08:08:46;;;;;;;3.93;3.07;;;10.20;99.90;;;;;;5094943;28;20841;-60
2022/12/21 08:11:16;;;;;;;3.40;3.20;;;10.20;99.90;;;;;;5094563;28;20512;-60
2022/12/21 08:13:43;;;;;;;3.17;2.87;;;10.20;99.90;;;;;;5094513;28;20447;-60
2022/12/21 08:16:13;;;;;;;4.80;3.23;;;10.20;99.90;;;;;;5094164;28;20443;-60
2022/12/21 08:18:41;;;;;;;3.57;3.30;;;10.20;99.90;;;;;;5094211;28;21032;-59
2022/12/21 08:21:08;;;;;;;4.53;3.97;;;10.20;99.90;;;;;;5094138;28;20494;-59
2022/12/21 08:23:36;;;;;;;4.20;3.80;;;10.20;99.90;;;;;;5094442;28;20449;-60
2022/12/21 08:26:04;;;;;;;3.90;3.50;;;10.20;99.90;;;;;;5094303;28;20467;-60
2022/12/21 08:28:31;;;;;;;3.27;2.97;;;10.10;99.90;;;;;;5094292;28;20933;-59
2022/12/21 08:31:02;;;;;;;3.30;3.03;;;10.10;99.90;;;;;;5094216;28;20464;-60
2022/12/21 08:33:29;;;;;;;6.97;3.50;;;10.10;99.90;;;;;;5094197;28;20475;-59
2022/12/21 08:35:58;;;;;;;5.17;3.10;;;10.20;99.90;;;;;;5094238;28;20447;-58
2022/12/21 08:38:25;;;;;;;3.70;2.70;;;10.20;99.90;;;;;;5094137;28;20466;-60
2022/12/21 08:40:52;;;;;;;3.50;2.63;;;10.20;99.90;;;;;;5093357;28;21001;-59
2022/12/21 08:43:20;;;;;;;3.93;3.33;;;10.20;99.90;;;;;;5093688;28;20922;-60
2022/12/21 08:45:47;;;;;;;3.03;2.80;;;10.20;99.90;;;;;;5093961;28;20443;-59
2022/12/21 08:48:14;;;;;;;3.80;3.13;;;10.20;99.90;;;;;;5094064;28;20533;-58
2022/12/21 08:50:41;;;;;;;4.23;3.20;;;10.20;99.90;;;;;;5093798;28;20833;-58
2022/12/21 08:53:09;;;;;;;3.43;3.17;;;10.20;99.90;;;;;;5093974;28;20444;-58
2022/12/21 08:55:36;;;;;;;4.37;3.27;;;10.20;99.90;;;;;;5093778;28;20447;-59
2022/12/21 08:58:03;;;;;;;4.13;3.40;;;10.20;99.90;;;;;;5093582;28;20451;-59
2022/12/21 09:00:30;;;;;;;4.97;3.23;;;10.20;99.90;;;;;;5093762;28;20471;-60
2022/12/21 09:02:57;;;;;;;4.37;3.97;;;10.20;99.90;;;;;;5093747;28;20443;-59
2022/12/21 09:05:24;;;;;;;3.03;2.83;;;10.30;99.90;;;;;;5093429;28;20443;-59
2022/12/21 09:07:51;;;;;;;2.90;2.70;;;10.30;99.90;;;;;;5093802;28;20447;-59
2022/12/21 09:10:20;;;;;;;3.20;3.00;;;10.30;99.90;;;;;;5093229;28;20520;-58
2022/12/21 09:12:47;;;;;;;8.33;3.60;;;10.30;99.90;;;;;;5093608;28;20458;-59
2022/12/21 09:15:14;;;;;;;3.70;3.40;;;10.30;99.90;;;;;;5093575;28;20439;-58
2022/12/21 09:17:41;;;;;;;6.70;3.50;;;10.30;99.90;;;;;;5093517;28;20440;-58
2022/12/21 09:20:11;;;;;;;6.93;3.63;;;10.30;99.90;;;;;;5093393;28;20447;-58
2022/12/21 09:22:39;;;;;;;4.07;3.67;;;10.30;99.90;;;;;;5093396;28;20479;-59
2022/12/21 09:25:07;;;;;;;4.17;3.10;;;10.30;99.90;;;;;;5093035;28;20439;-59
2022/12/21 09:27:36;;;;;;;3.47;3.17;;;10.20;99.90;;;;;;5093174;28;20942;-58
2022/12/21 09:30:03;;;;;;;3.00;2.80;;;10.20;99.90;;;;;;5097407;28;20473;-59
2022/12/21 09:32:30;;;;;;;4.27;3.10;;;10.30;99.90;;;;;;5097620;28;20453;-59
2022/12/21 09:34:57;;;;;;;6.57;3.30;;;10.30;99.90;;;;;;5097625;28;20538;-59
2022/12/21 09:37:25;;;;;;;5.00;2.90;;;10.30;99.90;;;;;;5097550;28;20451;-60
2022/12/21 09:39:52;;;;;;;4.60;3.30;;;10.30;99.90;;;;;;5097259;28;20555;-59
2022/12/21 09:42:33;;;;;;;4.93;3.50;;;10.20;99.90;;;;;;5097049;28;20988;-60
2022/12/21 09:45:13;;;;;;;3.77;3.23;;;10.20;99.90;;;;;;5097434;28;20438;-60
2022/12/21 09:47:45;;;;;;;4.40;4.00;;;10.30;99.90;;;;;;5097175;28;20435;-60
2022/12/21 09:50:19;;;;;;;4.90;3.03;;;10.30;99.90;;;;;;5096952;28;20463;-60
2022/12/21 09:52:53;;;;;;;3.93;3.37;;;10.30;99.90;;;;;;5096891;28;20432;-60
2022/12/21 09:55:22;;;;;;;6.80;3.40;;;10.40;99.90;;;;;;5096966;28;20865;-60
2022/12/21 09:57:52;;;;;;;4.33;3.40;;;10.40;99.90;;;;;;5097236;28;20450;-60
2022/12/21 10:00:23;;;;;;;3.57;3.10;;;10.40;99.90;;;;;;5097106;28;20469;-61
2022/12/21 10:03:35;;;;;;;3.70;3.40;;;10.40;99.90;;;;;;5096817;28;20473;-60
2022/12/21 10:06:25;;;;;;;7.53;3.60;;;10.40;99.90;;;;;;5034230;28;20534;-61
2022/12/21 10:09:32;;;;;;;3.43;3.13;;;10.40;99.90;;;;;;5092039;28;20451;-59
2022/12/21 10:12:10;;;;;;;4.97;3.60;;;10.50;99.90;;;;;;5066312;28;20457;-61
2022/12/21 10:14:51;;;;;;;4.60;3.63;;;10.50;99.90;;;;;;5096679;28;20475;-61
2022/12/21 10:17:30;;;;;;;5.60;4.83;;;10.50;99.90;;;;;;5096744;28;20478;-59
2022/12/21 10:20:08;;;;;;;4.33;3.80;;;10.60;99.90;;;;;;5096547;28;20469;-59
2022/12/21 10:22:39;;;;;;;3.90;3.60;;;10.60;99.90;;;;;;5096515;28;20463;-59
2022/12/21 10:25:15;;;;;;;4.10;3.80;;;10.60;99.90;;;;;;5096454;28;20453;-59
2022/12/21 10:27:46;;;;;;;6.50;3.70;;;10.70;99.90;;;;;;5096309;28;20857;-61
2022/12/21 10:30:15;;;;;;;3.43;3.13;;;10.70;99.90;;;;;;5096503;28;20472;-59
2022/12/21 10:32:48;;;;;;;5.20;3.60;;;10.70;99.90;;;;;;5096137;28;20447;-59
2022/12/21 10:35:23;;;;;;;4.83;3.80;;;10.80;99.90;;;;;;5096122;28;20416;-59
2022/12/21 10:37:53;;;;;;;5.17;3.87;;;10.70;99.90;;;;;;5096251;28;20469;-60
2022/12/21 10:40:22;;;;;;;5.20;3.53;;;10.70;99.90;;;;;;5095751;28;21054;-60
2022/12/21 10:42:51;;;;;;;4.80;4.10;;;10.90;99.90;;;;;;5096101;28;20483;-60
2022/12/21 10:45:22;;;;;;;4.13;3.73;;;10.90;99.90;;;;;;5095864;28;20453;-59
2022/12/21 10:47:50;;;;;;;6.30;3.90;;;10.90;99.90;;;;;;5096246;28;20510;-59
2022/12/21 10:50:21;;;;;;;4.03;3.60;;;10.90;99.90;;;;;;5096075;28;20473;-59
2022/12/21 10:52:50;;;;;;;4.23;3.63;;;10.90;99.90;;;;;;5095809;28;20435;-60
2022/12/21 10:55:32;;;;;;;4.03;3.73;;;11.40;99.90;;;;;;5095887;28;20475;-60
2022/12/21 10:58:11;;;;;;;3.33;3.03;;;11.70;99.90;;;;;;5096106;28;20432;-59
2022/12/21 11:00:40;;;;;;;3.60;3.30;;;11.80;99.90;;;;;;5095931;28;20463;-60
2022/12/21 11:03:23;;;;;;;4.50;3.73;;;11.90;99.90;;;;;;5095573;28;20996;-60
2022/12/21 11:05:51;;;;;;;4.60;2.90;;;12.50;99.90;;;;;;5095554;28;20925;-59
2022/12/21 11:08:26;;;;;;;4.00;3.70;;;12.90;99.90;;;;;;5095775;28;20492;-60
2022/12/21 11:10:55;;;;;;;5.03;3.03;;;12.90;99.90;;;;;;5095315;28;20463;-59
2022/12/21 11:13:24;;;;;;;4.33;3.40;;;12.80;99.90;;;;;;5095524;28;20455;-60
2022/12/21 11:16:03;;;;;;;4.63;3.47;;;12.60;99.90;;;;;;5095722;28;20465;-60
2022/12/21 11:18:42;;;;;;;4.93;3.30;;;12.40;99.90;;;;;;5095682;28;20536;-60
2022/12/21 11:21:22;;;;;;;3.50;3.20;;;11.90;99.90;;;;;;5095120;28;20473;-60
2022/12/21 11:24:00;;;;;;;3.70;3.27;;;12.20;99.90;;;;;;5095049;28;20416;-60
2022/12/21 11:26:31;;;;;;;5.27;3.30;;;12.60;99.90;;;;;;5095089;28;20968;-60
2022/12/21 11:29:07;;;;;;;3.73;3.30;;;12.70;99.90;;;;;;5094999;28;20895;-60
2022/12/21 11:31:36;;;;;;;3.90;3.27;;;12.50;99.90;;;;;;5095094;28;20527;-60
2022/12/21 11:34:05;;;;;;;4.30;3.40;;;12.30;99.90;;;;;;5094914;28;20821;-61
2022/12/21 11:36:32;;;;;;;3.80;3.50;;;12.30;99.90;;;;;;5094829;28;20444;-59
2022/12/21 11:38:59;;;;;;;4.47;3.70;;;12.40;99.90;;;;;;5095151;28;20454;-60
2022/12/21 11:41:28;;;;;;;4.60;3.10;;;12.60;99.90;;;;;;5094597;28;20558;-59
2022/12/21 11:43:56;;;;;;;4.10;3.70;;;12.80;99.90;;;;;;5094610;28;20443;-59
2022/12/21 11:46:39;;;;;;;3.77;3.47;;;12.80;99.90;;;;;;5095390;28;20447;-60
2022/12/21 11:49:29;;;;;;;4.07;3.40;;;12.60;99.90;;;;;;5094638;28;20912;-60
2022/12/21 11:52:07;;;;;;;5.50;4.97;;;12.70;99.90;;;;;;5093948;28;20935;-60
2022/12/21 11:54:48;;;;;;;6.60;3.33;;;12.80;99.90;;;;;;5095010;28;20423;-60
2022/12/21 11:57:26;;;;;;;7.20;3.97;;;12.80;99.90;;;;;;5094923;28;20786;-59
2022/12/21 12:00:05;;;;;;;3.80;3.50;;;12.70;99.90;;;;;;5094830;28;20554;-60
2022/12/21 12:03:09;;;;;;;4.77;4.17;;;12.60;99.90;;;;;;5094740;28;20533;-59
2022/12/21 12:05:55;;;;;;;4.03;3.40;;;12.50;99.90;;;;;;5094286;28;20948;-59
2022/12/21 12:08:40;;;;;;;3.93;3.40;;;12.40;99.90;;;;;;5094711;28;20930;-59
2022/12/21 12:11:23;;;;;;;8.10;3.50;;;12.40;99.90;;;;;;5094439;28;20461;-59
2022/12/21 12:14:11;;;;;;;4.43;3.70;;;12.30;99.90;;;;;;5094485;28;20424;-59
2022/12/21 12:16:48;;;;;;;4.03;3.63;;;12.30;99.90;;;;;;5094370;28;20467;-60
2022/12/21 12:19:23;;;;;;;4.50;3.27;;;12.30;99.90;;;;;;5094353;28;20432;-60
2022/12/21 12:22:25;;;;;;;8.53;3.70;;;12.50;99.90;;;;;;5093820;28;20430;-59
2022/12/21 12:25:14;;;;;;;4.63;3.00;;;12.60;99.90;;;;;;5094142;28;20431;-60
2022/12/21 12:28:04;;;;;;;2.53;2.00;;;12.70;99.90;;;;;;5094084;28;20430;-60
2022/12/21 12:30:43;;;;;;;2.37;2.17;;;12.90;99.90;;;;;;5094151;28;20882;-60
2022/12/21 12:33:19;;;;;;;2.77;2.57;;;13.00;99.90;;;;;;5094021;28;20846;-60
2022/12/21 12:36:03;;;;;;;2.40;2.20;;;13.00;99.90;;;;;;5094123;28;20550;-60
2022/12/21 12:38:43;;;;;;;2.63;2.43;;;13.10;99.90;;;;;;5094234;28;20447;-60
2022/12/21 12:41:23;;;;;;;2.43;2.10;;;13.30;99.90;;;;;;5093633;28;20985;-60
2022/12/21 12:43:57;;;;;;;3.33;3.03;;;13.40;99.90;;;;;;5093543;28;20807;-60
2022/12/21 12:46:53;;;;;;;2.50;2.30;;;13.20;99.90;;;;;;5093651;28;20432;-59
2022/12/21 12:49:32;;;;;;;2.27;2.03;;;13.30;99.90;;;;;;5092147;28;20992;-59
2022/12/21 12:52:08;;;;;;;3.07;2.57;;;13.10;99.90;;;;;;5093650;28;20434;-60
2022/12/21 12:54:52;;;;;;;2.60;2.40;;;13.10;99.90;;;;;;5093629;28;20550;-60
2022/12/21 12:57:26;;;;;;;3.30;2.10;;;13.00;99.90;;;;;;5093693;28;20423;-59
2022/12/21 13:00:03;;;;;;;2.50;2.30;;;12.80;99.90;;;;;;5093733;28;20512;-59
2022/12/21 13:02:39;;;;;;;3.50;2.70;;;12.70;99.90;;;;;;5093356;28;20880;-59
2022/12/21 13:05:24;;;;;;;2.83;2.63;;;12.60;99.90;;;;;;5093323;28;20442;-59
2022/12/21 13:07:58;;;;;;;5.07;2.50;;;12.50;99.90;;;;;;5093693;28;20463;-59
2022/12/21 13:10:31;;;;;;;5.17;2.93;;;;;;;;;;5093651;28;20474;-60
2022/12/21 13:13:05;;;;;;;2.30;2.10;;;12.40;99.90;;;;;;5093817;28;20442;-60
2022/12/21 13:15:41;;;;;;;2.63;2.43;;;12.50;99.90;;;;;;5093469;28;20480;-59
2022/12/21 13:18:14;;;;;;;3.13;2.50;;;12.40;99.90;;;;;;5093232;28;20428;-59
2022/12/21 13:20:43;;;;;;;2.53;2.33;;;12.40;99.90;;;;;;5093547;28;20494;-60
2022/12/21 13:23:13;;;;;;;4.33;2.47;;;12.40;99.90;;;;;;5093174;28;20487;-59
2022/12/21 13:25:47;;;;;;;2.93;2.63;;;12.40;99.90;;;;;;5093801;28;20475;-59